createdAt,value
2023-06-11T00:00:50.367Z,1013.33
2023-06-11T00:01:50.391Z,1013.38
2023-06-11T00:02:50.518Z,1013.35
2023-06-11T00:03:50.474Z,1013.34
2023-06-11T00:04:50.514Z,1013.35
2023-06-11T00:05:50.347Z,1013.35
2023-06-11T00:06:50.357Z,1013.35
2023-06-11T00:07:50.341Z,1013.35
2023-06-11T00:08:50.348Z,1013.39
2023-06-11T00:09:50.284Z,1013.37
2023-06-11T00:10:50.295Z,1013.43
2023-06-11T00:11:50.269Z,1013.37
2023-06-11T00:12:50.243Z,1013.39
2023-06-11T00:13:50.255Z,1013.42
2023-06-11T00:14:50.287Z,1013.39
2023-06-11T00:15:50.270Z,1013.34
2023-06-11T00:16:50.248Z,1013.42
2023-06-11T00:17:50.270Z,1013.42
2023-06-11T00:18:50.211Z,1013.45
2023-06-11T00:19:50.194Z,1013.41
2023-06-11T00:20:50.216Z,1013.43
2023-06-11T00:21:50.657Z,1013.44
2023-06-11T00:22:50.193Z,1013.45
2023-06-11T00:23:50.182Z,1013.47
2023-06-11T00:24:50.137Z,1013.46
2023-06-11T00:25:51.602Z,1013.44
2023-06-11T00:26:50.150Z,1013.41
2023-06-11T00:27:50.107Z,1013.45
2023-06-11T00:28:50.106Z,1013.44
2023-06-11T00:29:50.082Z,1013.44
2023-06-11T00:30:50.071Z,1013.44
2023-06-11T00:31:50.095Z,1013.41
2023-06-11T00:32:50.163Z,1013.44
2023-06-11T00:33:50.056Z,1013.47
2023-06-11T00:34:50.040Z,1013.42
2023-06-11T00:35:50.043Z,1013.44
2023-06-11T00:36:50.008Z,1013.45
2023-06-11T00:37:49.999Z,1013.46
2023-06-11T00:38:50.030Z,1013.46
2023-06-11T00:39:49.980Z,1013.48
2023-06-11T00:40:50.021Z,1013.56
2023-06-11T00:41:50.062Z,1013.53
2023-06-11T00:42:49.909Z,1013.53
2023-06-11T00:43:49.888Z,1013.52
2023-06-11T00:44:50.027Z,1013.55
2023-06-11T00:45:50.003Z,1013.63
2023-06-11T00:46:49.921Z,1013.60
2023-06-11T00:47:49.991Z,1013.57
2023-06-11T00:48:49.889Z,1013.60
2023-06-11T00:49:49.889Z,1013.64
2023-06-11T00:50:49.893Z,1013.64
2023-06-11T00:51:49.872Z,1013.59
2023-06-11T00:52:49.870Z,1013.69
2023-06-11T00:53:49.824Z,1013.68
2023-06-11T00:54:49.843Z,1013.65
2023-06-11T00:55:49.806Z,1013.66
2023-06-11T00:56:49.859Z,1013.66
2023-06-11T00:57:49.805Z,1013.70
2023-06-11T00:58:50.246Z,1013.68
2023-06-11T00:59:49.773Z,1013.66
2023-06-11T01:00:49.809Z,1013.70
2023-06-11T01:01:49.754Z,1013.68
2023-06-11T01:02:49.821Z,1013.64
2023-06-11T01:03:49.783Z,1013.59
2023-06-11T01:04:49.722Z,1013.67
2023-06-11T01:05:49.686Z,1013.69
2023-06-11T01:06:49.625Z,1013.73
2023-06-11T01:07:49.625Z,1013.70
2023-06-11T01:08:49.686Z,1013.70
2023-06-11T01:09:49.617Z,1013.70
2023-06-11T01:10:49.594Z,1013.67
2023-06-11T01:11:49.595Z,1013.71
2023-06-11T01:12:49.592Z,1013.69
2023-06-11T01:13:49.575Z,1013.68
2023-06-11T01:14:49.640Z,1013.71
2023-06-11T01:15:49.551Z,1013.77
2023-06-11T01:16:49.720Z,1013.74
2023-06-11T01:17:49.558Z,1013.73
2023-06-11T01:18:49.546Z,1013.72
2023-06-11T01:19:49.501Z,1013.72
2023-06-11T01:20:49.551Z,1013.74
2023-06-11T01:21:49.498Z,1013.74
2023-06-11T01:22:49.481Z,1013.75
2023-06-11T01:23:49.537Z,1013.76
2023-06-11T01:24:49.479Z,1013.79
2023-06-11T01:25:49.442Z,1013.81
2023-06-11T01:26:49.494Z,1013.81
2023-06-11T01:27:49.442Z,1013.87
2023-06-11T01:28:49.421Z,1013.84
2023-06-11T01:29:49.403Z,1013.85
2023-06-11T01:30:49.417Z,1013.89
2023-06-11T01:31:49.446Z,1013.88
2023-06-11T01:32:49.456Z,1013.84
2023-06-11T01:33:49.370Z,1013.85
2023-06-11T01:34:49.357Z,1013.89
2023-06-11T01:35:49.351Z,1013.87
2023-06-11T01:36:49.344Z,1013.90
2023-06-11T01:37:49.327Z,1013.85
2023-06-11T01:38:49.369Z,1013.89
2023-06-11T01:39:49.299Z,1013.94
2023-06-11T01:40:49.292Z,1013.95
2023-06-11T01:41:49.276Z,1013.96
2023-06-11T01:42:49.283Z,1013.97
2023-06-11T01:43:49.264Z,1013.96
2023-06-11T01:44:49.295Z,1013.95
2023-06-11T01:45:49.246Z,1014.00
2023-06-11T01:46:49.319Z,1013.97
2023-06-11T01:47:49.312Z,1014.01
2023-06-11T01:48:49.245Z,1014.07
2023-06-11T01:49:49.239Z,1014.07
2023-06-11T01:50:49.283Z,1014.04
2023-06-11T01:51:49.203Z,1014.05
2023-06-11T01:52:49.182Z,1014.08
2023-06-11T01:53:49.183Z,1014.05
2023-06-11T01:54:49.180Z,1014.06
2023-06-11T01:55:49.143Z,1014.10
2023-06-11T01:56:49.180Z,1014.08
2023-06-11T01:57:49.134Z,1014.07
2023-06-11T01:58:49.108Z,1014.07
2023-06-11T01:59:49.104Z,1014.08
2023-06-11T02:00:49.088Z,1014.07
2023-06-11T02:01:49.134Z,1014.10
2023-06-11T02:02:49.339Z,1014.10
2023-06-11T02:03:49.090Z,1014.09
2023-06-11T02:04:49.047Z,1014.12
2023-06-11T02:05:49.065Z,1014.11
2023-06-11T02:06:49.050Z,1014.11
2023-06-11T02:07:49.016Z,1014.12
2023-06-11T02:08:49.060Z,1014.10
2023-06-11T02:09:49.048Z,1014.11
2023-06-11T02:10:49.005Z,1014.15
2023-06-11T02:11:49.038Z,1014.14
2023-06-11T02:12:48.974Z,1014.11
2023-06-11T02:13:48.956Z,1014.13
2023-06-11T02:14:49.271Z,1014.14
2023-06-11T02:15:48.970Z,1014.11
2023-06-11T02:16:49.030Z,1014.15
2023-06-11T02:17:48.979Z,1014.15
2023-06-11T02:18:48.912Z,1014.13
2023-06-11T02:19:48.895Z,1014.12
2023-06-11T02:20:48.951Z,1014.11
2023-06-11T02:21:48.871Z,1014.14
2023-06-11T02:22:48.874Z,1014.14
2023-06-11T02:23:48.891Z,1014.20
2023-06-11T02:24:48.871Z,1014.14
2023-06-11T02:25:48.885Z,1014.14
2023-06-11T02:26:48.865Z,1014.14
2023-06-11T02:27:48.827Z,1014.15
2023-06-11T02:28:48.813Z,1014.15
2023-06-11T02:29:48.802Z,1014.12
2023-06-11T02:30:48.798Z,1014.14
2023-06-11T02:31:48.824Z,1014.17
2023-06-11T02:32:48.959Z,1014.16
2023-06-11T02:33:48.777Z,1014.15
2023-06-11T02:34:48.764Z,1014.12
2023-06-11T02:35:48.751Z,1014.14
2023-06-11T02:36:48.743Z,1014.16
2023-06-11T02:37:48.723Z,1014.14
2023-06-11T02:38:48.744Z,1014.15
2023-06-11T02:39:48.697Z,1014.14
2023-06-11T02:40:48.686Z,1014.13
2023-06-11T02:41:48.676Z,1014.11
2023-06-11T02:42:48.670Z,1014.16
2023-06-11T02:43:48.664Z,1014.14
2023-06-11T02:44:48.727Z,1014.13
2023-06-11T02:45:48.644Z,1014.14
2023-06-11T02:46:48.618Z,1014.21
2023-06-11T02:47:48.633Z,1014.16
2023-06-11T02:48:48.611Z,1014.16
2023-06-11T02:49:48.591Z,1014.16
2023-06-11T02:50:48.679Z,1014.22
2023-06-11T02:51:48.587Z,1014.17
2023-06-11T02:52:48.592Z,1014.19
2023-06-11T02:53:48.586Z,1014.13
2023-06-11T02:54:48.581Z,1014.22
2023-06-11T02:55:48.534Z,1014.19
2023-06-11T02:56:48.601Z,1014.23
2023-06-11T02:57:48.531Z,1014.21
2023-06-11T02:58:48.562Z,1014.23
2023-06-11T02:59:48.517Z,1014.19
2023-06-11T03:00:48.504Z,1014.23
2023-06-11T03:01:48.565Z,1014.24
2023-06-11T03:02:48.518Z,1014.23
2023-06-11T03:03:48.518Z,1014.22
2023-06-11T03:04:48.453Z,1014.24
2023-06-11T03:05:48.438Z,1014.17
2023-06-11T03:06:48.437Z,1014.19
2023-06-11T03:07:48.416Z,1014.22
2023-06-11T03:08:48.456Z,1014.19
2023-06-11T03:09:48.408Z,1014.22
2023-06-11T03:10:48.508Z,1014.21
2023-06-11T03:11:48.380Z,1014.21
2023-06-11T03:12:48.366Z,1014.21
2023-06-11T03:13:48.366Z,1014.23
2023-06-11T03:14:48.427Z,1014.22
2023-06-11T03:15:48.393Z,1014.28
2023-06-11T03:16:48.330Z,1014.29
2023-06-11T03:17:48.339Z,1014.25
2023-06-11T03:18:48.306Z,1014.24
2023-06-11T03:19:48.312Z,1014.28
2023-06-11T03:20:48.341Z,1014.29
2023-06-11T03:21:48.276Z,1014.37
2023-06-11T03:22:48.286Z,1014.26
2023-06-11T03:23:48.323Z,1014.35
2023-06-11T03:24:48.244Z,1014.29
2023-06-11T03:25:48.252Z,1014.27
2023-06-11T03:26:48.628Z,1014.28
2023-06-11T03:27:49.307Z,1014.26
2023-06-11T03:28:48.236Z,1014.31
2023-06-11T03:29:48.240Z,1014.29
2023-06-11T03:30:48.192Z,1014.32
2023-06-11T03:31:48.266Z,1014.31
2023-06-11T03:32:48.323Z,1014.33
2023-06-11T03:33:48.166Z,1014.25
2023-06-11T03:34:48.136Z,1014.28
2023-06-11T03:35:48.143Z,1014.21
2023-06-11T03:36:48.143Z,1014.23
2023-06-11T03:37:48.115Z,1014.19
2023-06-11T03:38:48.139Z,1014.22
2023-06-11T03:39:48.136Z,1014.20
2023-06-11T03:40:48.083Z,1014.25
2023-06-11T03:41:48.064Z,1014.21
2023-06-11T03:42:48.074Z,1014.22
2023-06-11T03:43:48.090Z,1014.26
2023-06-11T03:44:48.122Z,1014.21
2023-06-11T03:45:48.053Z,1014.25
2023-06-11T03:46:48.100Z,1014.25
2023-06-11T03:47:48.050Z,1014.24
2023-06-11T03:48:48.019Z,1014.26
2023-06-11T03:49:48.000Z,1014.28
2023-06-11T03:50:48.026Z,1014.21
2023-06-11T03:51:47.994Z,1014.24
2023-06-11T03:52:47.956Z,1014.28
2023-06-11T03:53:47.975Z,1014.23
2023-06-11T03:54:47.929Z,1014.28
2023-06-11T03:55:47.932Z,1014.21
2023-06-11T03:56:47.972Z,1014.28
2023-06-11T03:57:47.927Z,1014.28
2023-06-11T03:58:47.901Z,1014.30
2023-06-11T03:59:47.896Z,1014.33
2023-06-11T04:00:47.875Z,1014.30
2023-06-11T04:01:47.923Z,1014.34
2023-06-11T04:02:48.060Z,1014.29
2023-06-11T04:03:47.909Z,1014.32
2023-06-11T04:04:47.900Z,1014.27
2023-06-11T04:05:47.871Z,1014.21
2023-06-11T04:06:47.851Z,1014.26
2023-06-11T04:07:47.827Z,1014.25
2023-06-11T04:08:47.894Z,1014.22
2023-06-11T04:09:48.949Z,1014.21
2023-06-11T04:10:47.831Z,1014.20
2023-06-11T04:11:47.910Z,1014.21
2023-06-11T04:13:09.861Z,1014.22
2023-06-11T04:13:47.777Z,1014.21
2023-06-11T04:14:47.782Z,1014.21
2023-06-11T04:15:47.764Z,1014.19
2023-06-11T04:16:47.773Z,1014.19
2023-06-11T04:17:47.772Z,1014.20
2023-06-11T04:18:47.711Z,1014.17
2023-06-11T04:19:47.707Z,1014.23
2023-06-11T04:20:47.721Z,1014.26
2023-06-11T04:21:47.659Z,1014.28
2023-06-11T04:22:47.684Z,1014.23
2023-06-11T04:23:47.707Z,1014.24
2023-06-11T04:24:47.742Z,1014.22
2023-06-11T04:25:47.625Z,1014.26
2023-06-11T04:26:47.777Z,1014.29
2023-06-11T04:27:47.604Z,1014.33
2023-06-11T04:28:47.672Z,1014.30
2023-06-11T04:29:47.617Z,1014.34
2023-06-11T04:30:47.573Z,1014.33
2023-06-11T04:31:47.708Z,1014.36
2023-06-11T04:32:47.617Z,1014.39
2023-06-11T04:33:47.552Z,1014.33
2023-06-11T04:34:47.575Z,1014.31
2023-06-11T04:35:47.548Z,1014.39
2023-06-11T04:36:47.524Z,1014.33
2023-06-11T04:37:47.515Z,1014.32
2023-06-11T04:38:47.523Z,1014.32
2023-06-11T04:39:47.541Z,1014.34
2023-06-11T04:40:47.525Z,1014.34
2023-06-11T04:41:47.480Z,1014.39
2023-06-11T04:42:47.503Z,1014.34
2023-06-11T04:43:47.487Z,1014.36
2023-06-11T04:44:47.611Z,1014.31
2023-06-11T04:45:49.311Z,1014.36
2023-06-11T04:46:47.494Z,1014.35
2023-06-11T04:47:47.589Z,1014.35
2023-06-11T04:48:47.386Z,1014.38
2023-06-11T04:49:47.399Z,1014.28
2023-06-11T04:50:47.424Z,1014.29
2023-06-11T04:51:47.370Z,1014.34
2023-06-11T04:52:47.360Z,1014.33
2023-06-11T04:53:47.347Z,1014.30
2023-06-11T04:54:47.328Z,1014.21
2023-06-11T04:55:47.314Z,1014.24
2023-06-11T04:56:47.506Z,1014.22
2023-06-11T04:57:47.358Z,1014.23
2023-06-11T04:58:47.431Z,1014.20
2023-06-11T04:59:47.273Z,1014.19
2023-06-11T05:00:47.269Z,1014.18
2023-06-11T05:01:47.400Z,1014.16
2023-06-11T05:02:47.316Z,1014.13
2023-06-11T05:03:49.211Z,1014.12
2023-06-11T05:04:47.250Z,1014.18
2023-06-11T05:05:47.318Z,1014.08
2023-06-11T05:06:47.252Z,1014.14
2023-06-11T05:07:47.198Z,1014.17
2023-06-11T05:08:47.335Z,1014.12
2023-06-11T05:09:47.200Z,1014.16
2023-06-11T05:10:47.183Z,1014.18
2023-06-11T05:11:47.163Z,1014.11
2023-06-11T05:12:47.169Z,1014.10
2023-06-11T05:13:47.168Z,1014.14
2023-06-11T05:14:47.182Z,1014.11
2023-06-11T05:15:47.122Z,1014.13
2023-06-11T05:16:47.232Z,1014.14
2023-06-11T05:17:47.214Z,1014.17
2023-06-11T05:18:47.149Z,1014.15
2023-06-11T05:19:47.075Z,1014.14
2023-06-11T05:20:47.101Z,1014.19
2023-06-11T05:21:47.117Z,1014.08
2023-06-11T05:22:47.048Z,1014.10
2023-06-11T05:23:47.065Z,1014.09
2023-06-11T05:24:47.038Z,1014.12
2023-06-11T05:25:47.022Z,1014.10
2023-06-11T05:26:47.049Z,1014.12
2023-06-11T05:27:47.172Z,1014.07
2023-06-11T05:28:46.986Z,1014.09
2023-06-11T05:29:46.989Z,1014.12
2023-06-11T05:30:46.981Z,1014.12
2023-06-11T05:31:47.077Z,1014.10
2023-06-11T05:32:47.073Z,1014.13
2023-06-11T05:33:46.973Z,1014.07
2023-06-11T05:34:46.958Z,1014.10
2023-06-11T05:35:46.908Z,1014.05
2023-06-11T05:36:46.912Z,1014.09
2023-06-11T05:37:46.897Z,1014.05
2023-06-11T05:38:46.909Z,1014.10
2023-06-11T05:39:46.880Z,1014.11
2023-06-11T05:40:46.855Z,1014.07
2023-06-11T05:41:46.841Z,1014.07
2023-06-11T05:42:46.872Z,1014.11
2023-06-11T05:43:46.900Z,1014.07
2023-06-11T05:44:46.859Z,1014.04
2023-06-11T05:45:46.870Z,1014.06
2023-06-11T05:46:46.967Z,1014.07
2023-06-11T05:47:46.878Z,1014.07
2023-06-11T05:48:46.836Z,1014.06
2023-06-11T05:49:46.821Z,1014.11
2023-06-11T05:50:46.784Z,1014.14
2023-06-11T05:51:46.760Z,1014.12
2023-06-11T05:52:46.760Z,1014.09
2023-06-11T05:53:46.740Z,1014.10
2023-06-11T05:54:46.731Z,1014.08
2023-06-11T05:55:46.745Z,1014.10
2023-06-11T05:56:46.794Z,1014.07
2023-06-11T05:57:46.700Z,1014.07
2023-06-11T05:58:46.666Z,1014.09
2023-06-11T05:59:46.726Z,1014.10
2023-06-11T06:00:46.653Z,1014.11
2023-06-11T06:01:46.807Z,1014.09
2023-06-11T06:02:46.809Z,1014.09
2023-06-11T06:03:46.828Z,1014.06
2023-06-11T06:04:46.646Z,1014.09
2023-06-11T06:05:46.618Z,1014.10
2023-06-11T06:06:46.625Z,1014.05
2023-06-11T06:07:46.578Z,1014.02
2023-06-11T06:08:46.590Z,1014.04
2023-06-11T06:09:46.740Z,1014.04
2023-06-11T06:10:46.563Z,1014.06
2023-06-11T06:11:46.558Z,1014.05
2023-06-11T06:12:46.532Z,1014.08
2023-06-11T06:13:46.505Z,1014.08
2023-06-11T06:14:46.559Z,1014.06
2023-06-11T06:15:46.568Z,1014.07
2023-06-11T06:16:46.535Z,1014.09
2023-06-11T06:17:46.763Z,1014.08
2023-06-11T06:18:46.473Z,1014.10
2023-06-11T06:19:46.525Z,1014.12
2023-06-11T06:20:46.766Z,1014.10
2023-06-11T06:21:47.439Z,1014.12
2023-06-11T06:22:46.539Z,1014.08
2023-06-11T06:23:46.609Z,1014.09
2023-06-11T06:24:46.449Z,1014.11
2023-06-11T06:25:46.426Z,1014.08
2023-06-11T06:26:46.439Z,1014.09
2023-06-11T06:27:46.702Z,1014.11
2023-06-11T06:28:46.494Z,1014.11
2023-06-11T06:29:46.415Z,1014.09
2023-06-11T06:30:46.457Z,1014.08
2023-06-11T06:31:46.568Z,1014.11
2023-06-11T06:32:46.522Z,1014.10
2023-06-11T06:33:48.384Z,1014.11
2023-06-11T06:34:47.261Z,1014.07
2023-06-11T06:35:46.355Z,1014.05
2023-06-11T06:36:46.325Z,1014.06
2023-06-11T06:37:46.282Z,1014.04
2023-06-11T06:38:46.317Z,1014.05
2023-06-11T06:39:58.749Z,1014.09
2023-06-11T06:40:46.239Z,1014.09
2023-06-11T06:41:46.268Z,1014.09
2023-06-11T06:42:46.194Z,1014.11
2023-06-11T06:43:46.203Z,1014.06
2023-06-11T06:44:46.236Z,1014.02
2023-06-11T06:45:46.203Z,1014.00
2023-06-11T06:46:46.189Z,1014.04
2023-06-11T06:47:46.230Z,1014.01
2023-06-11T06:48:46.283Z,1014.01
2023-06-11T06:49:46.136Z,1014.02
2023-06-11T06:50:46.202Z,1014.00
2023-06-11T06:51:46.138Z,1014.02
2023-06-11T06:52:46.135Z,1014.05
2023-06-11T06:53:46.241Z,1014.00
2023-06-11T06:54:46.109Z,1014.06
2023-06-11T06:55:46.209Z,1014.04
2023-06-11T06:56:46.140Z,1013.97
2023-06-11T06:57:46.153Z,1013.97
2023-06-11T06:58:46.079Z,1014.00
2023-06-11T06:59:46.128Z,1013.98
2023-06-11T07:00:47.250Z,1013.94
2023-06-11T07:01:46.954Z,1013.94
2023-06-11T07:02:46.215Z,1013.95
2023-06-11T07:03:46.053Z,1013.92
2023-06-11T07:04:46.026Z,1013.95
2023-06-11T07:05:46.124Z,1013.94
2023-06-11T07:06:46.038Z,1013.89
2023-06-11T07:07:46.093Z,1013.92
2023-06-11T07:08:46.025Z,1013.90
2023-06-11T07:09:46.081Z,1013.93
2023-06-11T07:10:45.930Z,1013.85
2023-06-11T07:11:45.921Z,1013.89
2023-06-11T07:12:45.912Z,1013.86
2023-06-11T07:13:45.894Z,1013.84
2023-06-11T07:14:46.010Z,1013.81
2023-06-11T07:15:46.629Z,1013.85
2023-06-11T07:16:46.044Z,1013.84
2023-06-11T07:17:45.964Z,1013.87
2023-06-11T07:18:46.001Z,1013.89
2023-06-11T07:19:46.013Z,1013.84
2023-06-11T07:20:45.894Z,1013.84
2023-06-11T07:21:45.858Z,1013.88
2023-06-11T07:22:45.818Z,1013.85
2023-06-11T07:23:45.919Z,1013.80
2023-06-11T07:24:45.810Z,1013.87
2023-06-11T07:25:45.812Z,1013.86
2023-06-11T07:26:45.834Z,1013.89
2023-06-11T07:27:45.761Z,1013.83
2023-06-11T07:28:45.778Z,1013.85
2023-06-11T07:29:45.762Z,1013.81
2023-06-11T07:30:45.738Z,1013.82
2023-06-11T07:31:45.770Z,1013.80
2023-06-11T07:32:45.774Z,1013.77
2023-06-11T07:33:45.701Z,1013.79
2023-06-11T07:34:45.722Z,1013.80
2023-06-11T07:35:45.670Z,1013.79
2023-06-11T07:36:45.700Z,1013.78
2023-06-11T07:37:45.778Z,1013.75
2023-06-11T07:38:45.672Z,1013.77
2023-06-11T07:39:45.641Z,1013.76
2023-06-11T07:40:45.641Z,1013.73
2023-06-11T07:41:45.619Z,1013.71
2023-06-11T07:42:45.624Z,1013.75
2023-06-11T07:43:45.599Z,1013.75
2023-06-11T07:44:45.629Z,1013.77
2023-06-11T07:45:45.628Z,1013.77
2023-06-11T07:46:45.591Z,1013.72
2023-06-11T07:47:45.591Z,1013.80
2023-06-11T07:48:45.561Z,1013.70
2023-06-11T07:49:45.529Z,1013.72
2023-06-11T07:50:45.564Z,1013.70
2023-06-11T07:51:45.500Z,1013.72
2023-06-11T07:52:45.519Z,1013.70
2023-06-11T07:53:45.527Z,1013.71
2023-06-11T07:54:45.497Z,1013.70
2023-06-11T07:55:45.478Z,1013.66
2023-06-11T07:56:45.517Z,1013.75
2023-06-11T07:57:45.469Z,1013.77
2023-06-11T07:58:45.432Z,1013.70
2023-06-11T07:59:45.478Z,1013.68
2023-06-11T08:00:45.424Z,1013.74
2023-06-11T08:01:45.450Z,1013.76
2023-06-11T08:02:45.505Z,1013.66
2023-06-11T08:03:45.362Z,1013.68
2023-06-11T08:04:45.408Z,1013.70
2023-06-11T08:05:45.452Z,1013.70
2023-06-11T08:06:45.447Z,1013.65
2023-06-11T08:07:45.428Z,1013.66
2023-06-11T08:08:45.414Z,1013.65
2023-06-11T08:09:45.368Z,1013.68
2023-06-11T08:10:45.429Z,1013.71
2023-06-11T08:11:45.382Z,1013.63
2023-06-11T08:12:45.373Z,1013.59
2023-06-11T08:13:45.276Z,1013.60
2023-06-11T08:14:45.330Z,1013.56
2023-06-11T08:15:45.288Z,1013.53
2023-06-11T08:16:45.348Z,1013.50
2023-06-11T08:17:45.328Z,1013.51
2023-06-11T08:18:45.371Z,1013.48
2023-06-11T08:19:45.257Z,1013.48
2023-06-11T08:20:45.264Z,1013.54
2023-06-11T08:21:45.226Z,1013.52
2023-06-11T08:22:45.197Z,1013.49
2023-06-11T08:23:45.257Z,1013.46
2023-06-11T08:24:45.278Z,1013.46
2023-06-11T08:25:45.159Z,1013.45
2023-06-11T08:26:45.173Z,1013.43
2023-06-11T08:27:45.199Z,1013.45
2023-06-11T08:28:45.121Z,1013.39
2023-06-11T08:29:45.121Z,1013.40
2023-06-11T08:30:45.173Z,1013.39
2023-06-11T08:31:45.130Z,1013.38
2023-06-11T08:32:45.164Z,1013.36
2023-06-11T08:33:45.067Z,1013.41
2023-06-11T08:34:45.077Z,1013.38
2023-06-11T08:35:45.056Z,1013.33
2023-06-11T08:36:45.037Z,1013.38
2023-06-11T08:37:45.103Z,1013.34
2023-06-11T08:38:45.055Z,1013.32
2023-06-11T08:39:45.007Z,1013.34
2023-06-11T08:40:45.006Z,1013.32
2023-06-11T08:41:45.017Z,1013.27
2023-06-11T08:42:45.001Z,1013.28
2023-06-11T08:43:45.001Z,1013.23
2023-06-11T08:44:45.018Z,1013.27
2023-06-11T08:45:44.925Z,1013.25
2023-06-11T08:46:45.069Z,1013.26
2023-06-11T08:47:45.070Z,1013.19
2023-06-11T08:48:44.905Z,1013.17
2023-06-11T08:49:44.924Z,1013.22
2023-06-11T08:50:45.024Z,1013.17
2023-06-11T08:51:44.899Z,1013.21
2023-06-11T08:52:44.886Z,1013.20
2023-06-11T08:53:44.870Z,1013.22
2023-06-11T08:54:44.845Z,1013.23
2023-06-11T08:55:44.826Z,1013.15
2023-06-11T08:56:44.856Z,1013.16
2023-06-11T08:57:44.874Z,1013.14
2023-06-11T08:58:44.822Z,1013.15
2023-06-11T08:59:44.817Z,1013.18
2023-06-11T09:00:48.365Z,1013.14
2023-06-11T09:01:44.830Z,1013.12
2023-06-11T09:02:45.026Z,1013.12
2023-06-11T09:03:44.774Z,1013.15
2023-06-11T09:04:44.721Z,1013.16
2023-06-11T09:05:44.712Z,1013.15
2023-06-11T09:06:44.698Z,1013.14
2023-06-11T09:07:44.697Z,1013.13
2023-06-11T09:08:44.702Z,1013.07
2023-06-11T09:09:44.688Z,1013.12
2023-06-11T09:10:44.670Z,1013.09
2023-06-11T09:11:44.691Z,1013.07
2023-06-11T09:12:44.643Z,1013.08
2023-06-11T09:13:44.659Z,1013.08
2023-06-11T09:14:44.695Z,1013.08
2023-06-11T09:15:44.648Z,1013.02
2023-06-11T09:16:44.665Z,1013.02
2023-06-11T09:17:44.648Z,1013.01
2023-06-11T09:18:44.625Z,1013.02
2023-06-11T09:19:44.645Z,1013.03
2023-06-11T09:20:44.622Z,1013.01
2023-06-11T09:21:44.603Z,1013.06
2023-06-11T09:22:44.570Z,1013.01
2023-06-11T09:23:44.622Z,1013.04
2023-06-11T09:24:44.626Z,1013.02
2023-06-11T09:25:44.541Z,1013.02
2023-06-11T09:26:44.570Z,1013.01
2023-06-11T09:27:44.517Z,1013.04
2023-06-11T09:28:44.497Z,1013.03
2023-06-11T09:29:44.493Z,1012.96
2023-06-11T09:30:44.477Z,1013.02
2023-06-11T09:31:44.536Z,1012.97
2023-06-11T09:32:44.645Z,1012.97
2023-06-11T09:33:44.496Z,1012.97
2023-06-11T09:34:44.443Z,1012.92
2023-06-11T09:35:44.435Z,1012.91
2023-06-11T09:36:44.421Z,1012.93
2023-06-11T09:37:44.417Z,1012.88
2023-06-11T09:38:44.464Z,1012.99
2023-06-11T09:39:44.400Z,1012.96
2023-06-11T09:40:44.378Z,1012.96
2023-06-11T09:41:44.367Z,1012.94
2023-06-11T09:42:44.357Z,1012.94
2023-06-11T09:43:44.373Z,1012.92
2023-06-11T09:44:44.372Z,1012.88
2023-06-11T09:45:44.353Z,1012.89
2023-06-11T09:46:44.310Z,1012.93
2023-06-11T09:47:44.383Z,1012.88
2023-06-11T09:48:44.282Z,1012.89
2023-06-11T09:49:44.306Z,1012.82
2023-06-11T09:50:44.317Z,1012.82
2023-06-11T09:51:44.274Z,1012.85
2023-06-11T09:52:44.262Z,1012.84
2023-06-11T09:53:44.255Z,1012.81
2023-06-11T09:54:44.227Z,1012.84
2023-06-11T09:55:51.045Z,1012.80
2023-06-11T09:56:45.245Z,1012.80
2023-06-11T09:57:44.401Z,1012.76
2023-06-11T09:58:44.199Z,1012.72
2023-06-11T09:59:44.180Z,1012.77
2023-06-11T10:00:44.199Z,1012.77
2023-06-11T10:01:44.190Z,1012.76
2023-06-11T10:02:44.264Z,1012.76
2023-06-11T10:03:44.230Z,1012.74
2023-06-11T10:04:44.141Z,1012.80
2023-06-11T10:05:44.153Z,1012.77
2023-06-11T10:06:44.132Z,1012.74
2023-06-11T10:07:44.127Z,1012.75
2023-06-11T10:08:44.127Z,1012.76
2023-06-11T10:09:44.096Z,1012.72
2023-06-11T10:10:44.083Z,1012.61
2023-06-11T10:11:44.067Z,1012.64
2023-06-11T10:12:44.056Z,1012.62
2023-06-11T10:13:44.054Z,1012.72
2023-06-11T10:14:44.061Z,1012.67
2023-06-11T10:15:44.154Z,1012.61
2023-06-11T10:16:44.026Z,1012.62
2023-06-11T10:17:44.020Z,1012.64
2023-06-11T10:18:44.008Z,1012.62
2023-06-11T10:19:43.996Z,1012.67
2023-06-11T10:20:44.025Z,1012.65
2023-06-11T10:21:44.423Z,1012.61
2023-06-11T10:22:43.951Z,1012.59
2023-06-11T10:23:44.052Z,1012.59
2023-06-11T10:24:43.950Z,1012.58
2023-06-11T10:25:43.943Z,1012.60
2023-06-11T10:26:43.950Z,1012.61
2023-06-11T10:27:43.895Z,1012.59
2023-06-11T10:28:43.883Z,1012.55
2023-06-11T10:29:43.876Z,1012.56
2023-06-11T10:30:43.856Z,1012.60
2023-06-11T10:31:43.877Z,1012.51
2023-06-11T10:32:43.872Z,1012.53
2023-06-11T10:33:43.911Z,1012.53
2023-06-11T10:34:43.912Z,1012.49
2023-06-11T10:35:43.808Z,1012.47
2023-06-11T10:36:43.818Z,1012.50
2023-06-11T10:37:43.779Z,1012.50
2023-06-11T10:38:43.798Z,1012.48
2023-06-11T10:39:43.758Z,1012.45
2023-06-11T10:40:43.745Z,1012.54
2023-06-11T10:41:43.803Z,1012.46
2023-06-11T10:42:43.725Z,1012.48
2023-06-11T10:43:43.717Z,1012.50
2023-06-11T10:44:43.744Z,1012.48
2023-06-11T10:45:44.519Z,1012.42
2023-06-11T10:46:43.751Z,1012.42
2023-06-11T10:47:43.779Z,1012.45
2023-06-11T10:48:43.672Z,1012.41
2023-06-11T10:49:43.657Z,1012.39
2023-06-11T10:50:43.690Z,1012.40
2023-06-11T10:51:43.632Z,1012.41
2023-06-11T10:52:43.625Z,1012.43
2023-06-11T10:53:43.631Z,1012.38
2023-06-11T10:54:43.604Z,1012.39
2023-06-11T10:55:43.616Z,1012.37
2023-06-11T10:56:43.641Z,1012.39
2023-06-11T10:57:43.580Z,1012.37
2023-06-11T10:58:43.584Z,1012.35
2023-06-11T10:59:43.557Z,1012.35
2023-06-11T11:00:43.551Z,1012.36
2023-06-11T11:01:43.585Z,1012.37
2023-06-11T11:02:43.636Z,1012.33
2023-06-11T11:03:43.703Z,1012.25
2023-06-11T11:04:43.496Z,1012.33
2023-06-11T11:05:43.514Z,1012.36
2023-06-11T11:06:43.495Z,1012.26
2023-06-11T11:07:43.484Z,1012.27
2023-06-11T11:08:43.512Z,1012.28
2023-06-11T11:09:43.457Z,1012.25
2023-06-11T11:10:43.437Z,1012.27
2023-06-11T11:11:43.427Z,1012.29
2023-06-11T11:12:43.430Z,1012.22
2023-06-11T11:13:43.411Z,1012.27
2023-06-11T11:14:43.422Z,1012.26
2023-06-11T11:15:43.393Z,1012.28
2023-06-11T11:16:43.413Z,1012.20
2023-06-11T11:17:43.487Z,1012.18
2023-06-11T11:18:43.360Z,1012.20
2023-06-11T11:19:43.357Z,1012.17
2023-06-11T11:20:43.368Z,1012.16
2023-06-11T11:21:43.319Z,1012.13
2023-06-11T11:22:43.317Z,1012.09
2023-06-11T11:23:43.333Z,1012.12
2023-06-11T11:24:43.292Z,1012.13
2023-06-11T11:25:43.285Z,1012.05
2023-06-11T11:26:43.314Z,1012.06
2023-06-11T11:27:43.267Z,1012.09
2023-06-11T11:28:43.239Z,1012.11
2023-06-11T11:29:43.238Z,1012.06
2023-06-11T11:30:43.236Z,1012.07
2023-06-11T11:31:43.702Z,1012.09
2023-06-11T11:32:43.273Z,1012.04
2023-06-11T11:33:43.200Z,1012.07
2023-06-11T11:34:43.203Z,1012.04
2023-06-11T11:35:43.191Z,1012.01
2023-06-11T11:36:43.154Z,1012.03
2023-06-11T11:37:43.156Z,1012.03
2023-06-11T11:38:43.179Z,1012.03
2023-06-11T11:39:43.137Z,1012.03
2023-06-11T11:40:43.136Z,1012.05
2023-06-11T11:41:43.122Z,1011.99
2023-06-11T11:42:43.103Z,1012.00
2023-06-11T11:43:43.125Z,1011.97
2023-06-11T11:44:43.117Z,1011.93
2023-06-11T11:45:43.092Z,1011.98
2023-06-11T11:46:43.321Z,1011.93
2023-06-11T11:47:43.127Z,1011.91
2023-06-11T11:48:43.057Z,1011.97
2023-06-11T11:49:43.036Z,1011.97
2023-06-11T11:50:43.058Z,1011.89
2023-06-11T11:51:43.026Z,1011.88
2023-06-11T11:52:43.007Z,1011.90
2023-06-11T11:53:43.003Z,1011.94
2023-06-11T11:54:42.986Z,1011.94
2023-06-11T11:55:52.287Z,1011.93
2023-06-11T11:56:44.101Z,1011.87
2023-06-11T11:57:42.952Z,1011.87
2023-06-11T11:58:42.952Z,1011.86
2023-06-11T11:59:42.932Z,1011.85
2023-06-11T12:00:42.912Z,1011.89
2023-06-11T12:01:42.904Z,1011.90
2023-06-11T12:02:43.087Z,1011.91
2023-06-11T12:03:43.161Z,1011.95
2023-06-11T12:04:42.879Z,1011.89
2023-06-11T12:05:42.905Z,1011.84